sensor_id;sensor_type;location;lat;lon;timestamp;pressure;altitude;pressure_sealevel;temperature;humidity
20115;BME280;10218;42.874;25.320;2022-09-09T00:03:40;97189.81;;;22.26;53.97
20115;BME280;10218;42.874;25.320;2022-09-09T00:06:14;97194.44;;;22.25;53.97
20115;BME280;10218;42.874;25.320;2022-09-09T00:11:28;97182.59;;;22.31;53.83
20115;BME280;10218;42.874;25.320;2022-09-09T00:13:58;97190.94;;;22.25;54.06
20115;BME280;10218;42.874;25.320;2022-09-09T00:16:32;97179.34;;;22.17;54.38
20115;BME280;10218;42.874;25.320;2022-09-09T00:24:38;97191.25;;;22.28;54.04
20115;BME280;10218;42.874;25.320;2022-09-09T00:27:13;97181.25;;;22.17;54.62
20115;BME280;10218;42.874;25.320;2022-09-09T00:29:47;97171.38;;;21.99;55.25
20115;BME280;10218;42.874;25.320;2022-09-09T00:32:20;97184.53;;;22.02;55.68
20115;BME280;10218;42.874;25.320;2022-09-09T00:34:52;97175.94;;;21.94;55.87
20115;BME280;10218;42.874;25.320;2022-09-09T00:37:22;97174.47;;;22.03;55.66
20115;BME280;10218;42.874;25.320;2022-09-09T00:39:56;97184.19;;;21.99;56.00
20115;BME280;10218;42.874;25.320;2022-09-09T00:42:26;97183.13;;;21.88;56.84
20115;BME280;10218;42.874;25.320;2022-09-09T00:47:54;97193.28;;;22.04;56.29
20115;BME280;10218;42.874;25.320;2022-09-09T00:53:15;97184.53;;;21.91;56.42
20115;BME280;10218;42.874;25.320;2022-09-09T00:58:28;97171.44;;;21.88;56.42
20115;BME280;10218;42.874;25.320;2022-09-09T01:11:12;97177.31;;;21.68;58.31
20115;BME280;10218;42.874;25.320;2022-09-09T01:13:45;97182.69;;;21.80;57.55
20115;BME280;10218;42.874;25.320;2022-09-09T01:16:15;97176.78;;;21.83;57.72
20115;BME280;10218;42.874;25.320;2022-09-09T01:18:46;97175.72;;;21.84;57.33
20115;BME280;10218;42.874;25.320;2022-09-09T01:21:40;97183.47;;;21.92;56.92
20115;BME280;10218;42.874;25.320;2022-09-09T01:27:35;97167.41;;;22.52;55.13
20115;BME280;10218;42.874;25.320;2022-09-09T01:30:11;97167.41;;;22.52;55.13
20115;BME280;10218;42.874;25.320;2022-09-09T01:32:55;97159.97;;;21.86;56.61
20115;BME280;10218;42.874;25.320;2022-09-09T01:35:40;97167.50;;;21.95;56.92
20115;BME280;10218;42.874;25.320;2022-09-09T01:38:11;97163.00;;;21.72;57.91
20115;BME280;10218;42.874;25.320;2022-09-09T01:40:39;97159.66;;;21.70;58.35
20115;BME280;10218;42.874;25.320;2022-09-09T01:43:06;97160.09;;;21.79;58.34
20115;BME280;10218;42.874;25.320;2022-09-09T01:45:35;97167.25;;;21.68;58.77
20115;BME280;10218;42.874;25.320;2022-09-09T01:48:02;97159.00;;;21.63;59.07
20115;BME280;10218;42.874;25.320;2022-09-09T01:50:31;97159.75;;;21.47;60.55
20115;BME280;10218;42.874;25.320;2022-09-09T01:52:59;97154.91;;;21.49;60.15
20115;BME280;10218;42.874;25.320;2022-09-09T01:55:37;97159.41;;;21.44;60.62
20115;BME280;10218;42.874;25.320;2022-09-09T01:58:36;97157.44;;;21.67;59.23
20115;BME280;10218;42.874;25.320;2022-09-09T02:01:17;97155.88;;;21.71;59.11
20115;BME280;10218;42.874;25.320;2022-09-09T02:03:57;97150.94;;;21.68;59.28
20115;BME280;10218;42.874;25.320;2022-09-09T02:06:31;97151.66;;;21.64;59.84
20115;BME280;10218;42.874;25.320;2022-09-09T02:09:05;97165.19;;;21.47;60.73
20115;BME280;10218;42.874;25.320;2022-09-09T02:11:33;97161.88;;;21.45;60.63
20115;BME280;10218;42.874;25.320;2022-09-09T02:14:09;97161.34;;;21.71;59.12
20115;BME280;10218;42.874;25.320;2022-09-09T02:16:41;97152.88;;;21.56;59.72
20115;BME280;10218;42.874;25.320;2022-09-09T02:19:18;97144.19;;;21.43;60.35
20115;BME280;10218;42.874;25.320;2022-09-09T02:21:56;97151.56;;;21.59;60.00
20115;BME280;10218;42.874;25.320;2022-09-09T02:24:26;97139.88;;;21.58;60.23
20115;BME280;10218;42.874;25.320;2022-09-09T02:26:57;97139.09;;;21.46;61.01
20115;BME280;10218;42.874;25.320;2022-09-09T02:29:33;97137.66;;;21.44;61.46
20115;BME280;10218;42.874;25.320;2022-09-09T02:32:05;97149.31;;;21.27;62.28
20115;BME280;10218;42.874;25.320;2022-09-09T02:34:36;97150.81;;;21.23;62.81
20115;BME280;10218;42.874;25.320;2022-09-09T02:37:08;97150.50;;;21.20;63.69
20115;BME280;10218;42.874;25.320;2022-09-09T02:39:36;97154.62;;;21.11;64.53
20115;BME280;10218;42.874;25.320;2022-09-09T02:42:04;97155.22;;;21.13;64.66
20115;BME280;10218;42.874;25.320;2022-09-09T02:44:32;97149.44;;;20.98;66.15
20115;BME280;10218;42.874;25.320;2022-09-09T02:55:09;97132.94;;;20.87;68.29
20115;BME280;10218;42.874;25.320;2022-09-09T02:57:40;97141.31;;;20.86;68.88
20115;BME280;10218;42.874;25.320;2022-09-09T03:00:10;97138.13;;;20.77;69.83
20115;BME280;10218;42.874;25.320;2022-09-09T03:02:37;97143.06;;;20.80;69.81
20115;BME280;10218;42.874;25.320;2022-09-09T03:05:06;97136.47;;;20.76;69.76
20115;BME280;10218;42.874;25.320;2022-09-09T03:07:33;97147.56;;;20.75;70.10
20115;BME280;10218;42.874;25.320;2022-09-09T03:10:01;97148.75;;;20.90;68.92
20115;BME280;10218;42.874;25.320;2022-09-09T03:12:28;97153.09;;;20.68;71.11
20115;BME280;10218;42.874;25.320;2022-09-09T03:14:55;97152.28;;;20.79;70.76
20115;BME280;10218;42.874;25.320;2022-09-09T03:17:22;97146.62;;;20.69;72.29
20115;BME280;10218;42.874;25.320;2022-09-09T03:19:50;97145.91;;;20.62;73.39
20115;BME280;10218;42.874;25.320;2022-09-09T03:22:21;97132.69;;;20.54;74.43
20115;BME280;10218;42.874;25.320;2022-09-09T03:24:48;97144.47;;;20.48;76.17
20115;BME280;10218;42.874;25.320;2022-09-09T03:27:16;97145.53;;;20.47;77.50
20115;BME280;10218;42.874;25.320;2022-09-09T03:29:43;97144.44;;;20.25;80.71
20115;BME280;10218;42.874;25.320;2022-09-09T03:32:12;97147.97;;;20.25;81.09
20115;BME280;10218;42.874;25.320;2022-09-09T03:34:39;97139.94;;;20.19;81.64
20115;BME280;10218;42.874;25.320;2022-09-09T03:37:08;97140.81;;;20.31;81.21
20115;BME280;10218;42.874;25.320;2022-09-09T03:39:35;97147.59;;;20.10;83.55
20115;BME280;10218;42.874;25.320;2022-09-09T03:42:03;97152.44;;;20.20;83.31
20115;BME280;10218;42.874;25.320;2022-09-09T03:44:31;97157.53;;;20.16;83.09
20115;BME280;10218;42.874;25.320;2022-09-09T03:46:58;97148.06;;;20.19;83.35
20115;BME280;10218;42.874;25.320;2022-09-09T03:49:27;97145.63;;;20.29;81.68
20115;BME280;10218;42.874;25.320;2022-09-09T03:51:58;97147.06;;;20.43;79.99
20115;BME280;10218;42.874;25.320;2022-09-09T03:54:25;97150.03;;;20.41;80.29
20115;BME280;10218;42.874;25.320;2022-09-09T03:56:52;97150.41;;;20.45;78.45
20115;BME280;10218;42.874;25.320;2022-09-09T03:59:21;97149.44;;;20.39;79.69
20115;BME280;10218;42.874;25.320;2022-09-09T04:01:49;97151.91;;;20.53;77.27
20115;BME280;10218;42.874;25.320;2022-09-09T04:04:17;97153.22;;;20.50;77.79
20115;BME280;10218;42.874;25.320;2022-09-09T04:06:44;97154.16;;;20.44;78.76
20115;BME280;10218;42.874;25.320;2022-09-09T04:09:11;97155.09;;;20.73;75.55
20115;BME280;10218;42.874;25.320;2022-09-09T04:11:38;97160.78;;;20.71;75.66
20115;BME280;10218;42.874;25.320;2022-09-09T04:14:05;97164.09;;;20.62;76.46
20115;BME280;10218;42.874;25.320;2022-09-09T04:16:33;97159.25;;;20.64;76.10
20115;BME280;10218;42.874;25.320;2022-09-09T04:19:03;97165.75;;;20.74;75.65
20115;BME280;10218;42.874;25.320;2022-09-09T04:21:31;97154.75;;;20.46;77.82
20115;BME280;10218;42.874;25.320;2022-09-09T04:23:58;97167.16;;;20.77;75.38
20115;BME280;10218;42.874;25.320;2022-09-09T04:26:25;97165.84;;;20.68;76.19
20115;BME280;10218;42.874;25.320;2022-09-09T04:28:52;97166.56;;;20.52;76.66
20115;BME280;10218;42.874;25.320;2022-09-09T04:31:21;97176.13;;;20.89;73.97
20115;BME280;10218;42.874;25.320;2022-09-09T04:33:50;97170.94;;;20.87;73.14
20115;BME280;10218;42.874;25.320;2022-09-09T04:36:18;97170.09;;;20.99;73.88
20115;BME280;10218;42.874;25.320;2022-09-09T04:38:48;97161.84;;;20.93;74.17
20115;BME280;10218;42.874;25.320;2022-09-09T04:41:16;97166.47;;;20.81;76.14
20115;BME280;10218;42.874;25.320;2022-09-09T04:43:43;97162.09;;;20.92;73.74
20115;BME280;10218;42.874;25.320;2022-09-09T04:46:11;97149.69;;;21.08;70.71
20115;BME280;10218;42.874;25.320;2022-09-09T04:48:39;97161.81;;;21.28;68.77
20115;BME280;10218;42.874;25.320;2022-09-09T04:51:09;97163.47;;;21.29;69.16
20115;BME280;10218;42.874;25.320;2022-09-09T04:53:38;97163.47;;;21.06;71.27
20115;BME280;10218;42.874;25.320;2022-09-09T04:58:38;97156.13;;;21.30;73.75
20115;BME280;10218;42.874;25.320;2022-09-09T05:01:11;97163.81;;;21.33;75.21
20115;BME280;10218;42.874;25.320;2022-09-09T05:03:39;97164.63;;;21.33;74.90
20115;BME280;10218;42.874;25.320;2022-09-09T05:06:12;97165.87;;;21.54;74.37
20115;BME280;10218;42.874;25.320;2022-09-09T05:08:41;97164.34;;;21.58;70.35
20115;BME280;10218;42.874;25.320;2022-09-09T05:13:50;97161.72;;;21.92;68.74
20115;BME280;10218;42.874;25.320;2022-09-09T05:16:18;97163.81;;;22.01;65.97
20115;BME280;10218;42.874;25.320;2022-09-09T05:18:46;97163.03;;;22.17;65.39
20115;BME280;10218;42.874;25.320;2022-09-09T05:21:14;97169.41;;;22.56;63.35
20115;BME280;10218;42.874;25.320;2022-09-09T05:23:44;97170.25;;;22.74;65.04
20115;BME280;10218;42.874;25.320;2022-09-09T05:26:15;97157.69;;;22.73;62.26
20115;BME280;10218;42.874;25.320;2022-09-09T05:28:45;97160.34;;;22.84;60.86
20115;BME280;10218;42.874;25.320;2022-09-09T05:31:15;97164.94;;;23.00;60.53
20115;BME280;10218;42.874;25.320;2022-09-09T05:33:44;97161.47;;;23.05;60.13
20115;BME280;10218;42.874;25.320;2022-09-09T05:36:15;97159.03;;;23.09;59.87
20115;BME280;10218;42.874;25.320;2022-09-09T05:38:44;97160.88;;;23.03;59.95
20115;BME280;10218;42.874;25.320;2022-09-09T05:41:12;97157.56;;;23.39;58.63
20115;BME280;10218;42.874;25.320;2022-09-09T05:43:43;97142.25;;;23.38;58.44
20115;BME280;10218;42.874;25.320;2022-09-09T05:46:16;97141.06;;;23.73;57.88
20115;BME280;10218;42.874;25.320;2022-09-09T05:48:45;97137.25;;;23.74;58.87
20115;BME280;10218;42.874;25.320;2022-09-09T05:51:20;97136.53;;;24.10;56.19
20115;BME280;10218;42.874;25.320;2022-09-09T05:53:49;97132.44;;;23.81;56.55
20115;BME280;10218;42.874;25.320;2022-09-09T05:56:22;97135.41;;;23.79;56.37
20115;BME280;10218;42.874;25.320;2022-09-09T05:58:53;97138.91;;;23.75;56.25
20115;BME280;10218;42.874;25.320;2022-09-09T06:01:32;97135.81;;;23.93;55.86
20115;BME280;10218;42.874;25.320;2022-09-09T06:04:00;97137.75;;;24.19;54.94
20115;BME280;10218;42.874;25.320;2022-09-09T06:06:32;97136.13;;;24.23;54.19
20115;BME280;10218;42.874;25.320;2022-09-09T06:09:04;97131.19;;;24.47;54.22
20115;BME280;10218;42.874;25.320;2022-09-09T06:11:38;97126.16;;;24.71;52.97
20115;BME280;10218;42.874;25.320;2022-09-09T06:14:07;97123.38;;;24.66;53.69
20115;BME280;10218;42.874;25.320;2022-09-09T06:16:34;97121.56;;;24.82;nan
20115;BME280;10218;42.874;25.320;2022-09-09T06:19:02;97123.84;;;24.90;53.40
20115;BME280;10218;42.874;25.320;2022-09-09T06:21:35;97119.06;;;25.12;52.14
20115;BME280;10218;42.874;25.320;2022-09-09T06:24:06;97122.00;;;25.58;51.32
20115;BME280;10218;42.874;25.320;2022-09-09T06:26:37;97119.53;;;25.56;51.36
20115;BME280;10218;42.874;25.320;2022-09-09T06:29:04;97119.09;;;25.84;50.69
20115;BME280;10218;42.874;25.320;2022-09-09T06:31:33;97122.13;;;26.08;49.58
20115;BME280;10218;42.874;25.320;2022-09-09T06:34:05;97120.84;;;26.36;48.48
20115;BME280;10218;42.874;25.320;2022-09-09T06:36:35;97123.25;;;26.73;47.52
20115;BME280;10218;42.874;25.320;2022-09-09T06:39:05;97128.47;;;26.74;48.15
20115;BME280;10218;42.874;25.320;2022-09-09T06:41:33;97124.09;;;26.89;47.73
20115;BME280;10218;42.874;25.320;2022-09-09T06:44:01;97120.25;;;26.59;48.36
20115;BME280;10218;42.874;25.320;2022-09-09T06:46:30;97118.06;;;26.87;47.48
20115;BME280;10218;42.874;25.320;2022-09-09T06:49:00;97112.59;;;26.76;46.83
20115;BME280;10218;42.874;25.320;2022-09-09T06:51:31;97124.62;;;26.96;45.74
20115;BME280;10218;42.874;25.320;2022-09-09T06:54:02;97127.31;;;27.16;45.09
20115;BME280;10218;42.874;25.320;2022-09-09T06:56:35;97121.78;;;27.31;44.59
20115;BME280;10218;42.874;25.320;2022-09-09T06:59:04;97116.78;;;27.53;43.01
20115;BME280;10218;42.874;25.320;2022-09-09T07:01:35;97112.09;;;27.54;42.18
20115;BME280;10218;42.874;25.320;2022-09-09T07:04:04;97108.50;;;27.63;42.17
20115;BME280;10218;42.874;25.320;2022-09-09T07:06:40;97102.25;;;28.02;41.00
20115;BME280;10218;42.874;25.320;2022-09-09T07:09:10;97115.72;;;28.42;40.60
20115;BME280;10218;42.874;25.320;2022-09-09T07:11:43;97120.03;;;28.09;41.05
20115;BME280;10218;42.874;25.320;2022-09-09T07:14:12;97119.41;;;28.28;41.55
20115;BME280;10218;42.874;25.320;2022-09-09T07:16:44;97119.66;;;28.26;39.79
20115;BME280;10218;42.874;25.320;2022-09-09T07:19:13;97115.47;;;28.73;39.21
20115;BME280;10218;42.874;25.320;2022-09-09T07:21:42;97115.47;;;28.73;38.86
20115;BME280;10218;42.874;25.320;2022-09-09T07:24:10;97118.66;;;28.85;38.59
20115;BME280;10218;42.874;25.320;2022-09-09T07:26:39;97113.16;;;28.85;38.69
20115;BME280;10218;42.874;25.320;2022-09-09T07:29:07;97123.38;;;29.08;37.89
20115;BME280;10218;42.874;25.320;2022-09-09T07:31:36;97113.78;;;28.77;38.00
20115;BME280;10218;42.874;25.320;2022-09-09T07:34:05;97108.88;;;28.69;38.14
20115;BME280;10218;42.874;25.320;2022-09-09T07:36:36;97128.97;;;28.98;38.31
20115;BME280;10218;42.874;25.320;2022-09-09T07:39:10;97126.66;;;29.10;37.70
20115;BME280;10218;42.874;25.320;2022-09-09T07:41:43;97124.69;;;29.40;37.23
20115;BME280;10218;42.874;25.320;2022-09-09T07:44:20;97132.66;;;29.12;37.87
20115;BME280;10218;42.874;25.320;2022-09-09T07:46:48;97133.06;;;29.01;37.99
20115;BME280;10218;42.874;25.320;2022-09-09T07:49:16;97128.44;;;28.96;37.66
20115;BME280;10218;42.874;25.320;2022-09-09T07:51:47;97144.41;;;28.94;37.65
20115;BME280;10218;42.874;25.320;2022-09-09T07:54:18;97138.56;;;29.01;37.86
20115;BME280;10218;42.874;25.320;2022-09-09T07:56:47;97149.81;;;29.33;37.52
20115;BME280;10218;42.874;25.320;2022-09-09T07:59:15;97143.81;;;28.97;37.70
20115;BME280;10218;42.874;25.320;2022-09-09T08:01:51;97144.81;;;29.06;38.58
20115;BME280;10218;42.874;25.320;2022-09-09T08:04:23;97143.41;;;28.85;38.31
20115;BME280;10218;42.874;25.320;2022-09-09T08:06:56;97142.13;;;29.01;38.15
20115;BME280;10218;42.874;25.320;2022-09-09T08:09:24;97149.28;;;29.31;37.67
20115;BME280;10218;42.874;25.320;2022-09-09T08:11:55;97147.34;;;29.03;38.17
20115;BME280;10218;42.874;25.320;2022-09-09T08:14:25;97138.53;;;29.29;37.90
20115;BME280;10218;42.874;25.320;2022-09-09T08:16:54;97140.84;;;29.46;37.62
20115;BME280;10218;42.874;25.320;2022-09-09T08:19:21;97128.06;;;29.31;37.87
20115;BME280;10218;42.874;25.320;2022-09-09T08:21:49;97122.69;;;29.45;37.38
20115;BME280;10218;42.874;25.320;2022-09-09T08:24:16;97124.91;;;29.19;37.53
20115;BME280;10218;42.874;25.320;2022-09-09T08:26:47;97123.62;;;30.02;36.79
20115;BME280;10218;42.874;25.320;2022-09-09T08:29:19;97123.62;;;29.78;37.34
20115;BME280;10218;42.874;25.320;2022-09-09T08:31:49;97113.25;;;30.50;36.83
20115;BME280;10218;42.874;25.320;2022-09-09T08:34:18;97110.50;;;30.50;36.00
20115;BME280;10218;42.874;25.320;2022-09-09T08:36:48;97105.59;;;30.47;35.76
20115;BME280;10218;42.874;25.320;2022-09-09T08:39:18;97103.69;;;30.61;35.55
20115;BME280;10218;42.874;25.320;2022-09-09T08:58:30;97097.78;;;31.41;34.96
20115;BME280;10218;42.874;25.320;2022-09-09T09:11:48;97108.03;;;31.40;34.92
20115;BME280;10218;42.874;25.320;2022-09-09T09:14:23;97112.72;;;31.13;35.25
20115;BME280;10218;42.874;25.320;2022-09-09T09:16:59;97104.72;;;30.97;35.36
20115;BME280;10218;42.874;25.320;2022-09-09T09:19:29;97096.63;;;30.87;35.35
20115;BME280;10218;42.874;25.320;2022-09-09T09:24:49;97091.84;;;31.75;34.40
20115;BME280;10218;42.874;25.320;2022-09-09T09:30:12;97106.31;;;31.58;34.25
20115;BME280;10218;42.874;25.320;2022-09-09T09:32:54;97090.66;;;31.54;34.60
20115;BME280;10218;42.874;25.320;2022-09-09T09:35:24;97108.53;;;31.70;34.11
20115;BME280;10218;42.874;25.320;2022-09-09T09:37:52;97097.03;;;32.04;33.95
20115;BME280;10218;42.874;25.320;2022-09-09T09:40:51;97089.03;;;32.02;33.99
20115;BME280;10218;42.874;25.320;2022-09-09T09:43:31;97091.44;;;31.81;33.80
20115;BME280;10218;42.874;25.320;2022-09-09T09:45:59;97087.28;;;32.20;33.95
20115;BME280;10218;42.874;25.320;2022-09-09T09:48:40;97093.38;;;31.95;33.89
20115;BME280;10218;42.874;25.320;2022-09-09T09:51:13;97092.38;;;31.09;34.98
20115;BME280;10218;42.874;25.320;2022-09-09T09:53:43;97087.56;;;31.82;34.39
20115;BME280;10218;42.874;25.320;2022-09-09T09:56:13;97093.91;;;31.83;34.19
20115;BME280;10218;42.874;25.320;2022-09-09T10:01:29;97080.69;;;31.94;34.26
20115;BME280;10218;42.874;25.320;2022-09-09T10:04:01;97078.38;;;31.73;34.48
20115;BME280;10218;42.874;25.320;2022-09-09T10:06:34;97074.44;;;32.46;34.16
20115;BME280;10218;42.874;25.320;2022-09-09T10:09:04;97073.13;;;32.44;33.53
20115;BME280;10218;42.874;25.320;2022-09-09T10:12:11;97085.53;;;32.99;33.24
20115;BME280;10218;42.874;25.320;2022-09-09T10:15:13;97083.31;;;32.79;33.52
20115;BME280;10218;42.874;25.320;2022-09-09T10:21:14;97086.38;;;33.31;32.70
20115;BME280;10218;42.874;25.320;2022-09-09T10:29:33;97102.44;;;33.20;32.88
20115;BME280;10218;42.874;25.320;2022-09-09T10:35:17;97091.28;;;32.58;33.57
20115;BME280;10218;42.874;25.320;2022-09-09T10:38:41;97083.06;;;32.89;33.67
20115;BME280;10218;42.874;25.320;2022-09-09T10:43:53;97090.91;;;32.29;34.14
20115;BME280;10218;42.874;25.320;2022-09-09T10:57:03;97073.31;;;33.79;31.94
20115;BME280;10218;42.874;25.320;2022-09-09T10:59:44;97071.12;;;33.59;32.35
20115;BME280;10218;42.874;25.320;2022-09-09T11:02:28;97073.38;;;33.48;32.41
20115;BME280;10218;42.874;25.320;2022-09-09T11:05:14;97076.88;;;34.92;30.90
20115;BME280;10218;42.874;25.320;2022-09-09T11:07:52;97069.94;;;34.25;31.55
20115;BME280;10218;42.874;25.320;2022-09-09T11:10:42;97070.25;;;33.98;32.04
20115;BME280;10218;42.874;25.320;2022-09-09T11:18:40;97085.62;;;33.65;32.53
20115;BME280;10218;42.874;25.320;2022-09-09T11:21:18;97065.66;;;33.28;33.34
20115;BME280;10218;42.874;25.320;2022-09-09T11:23:55;97064.69;;;33.02;33.27
20115;BME280;10218;42.874;25.320;2022-09-09T11:26:37;97063.28;;;33.52;33.17
20115;BME280;10218;42.874;25.320;2022-09-09T11:34:30;97061.50;;;35.03;31.43
20115;BME280;10218;42.874;25.320;2022-09-09T11:40:21;97051.66;;;34.59;32.10
20115;BME280;10218;42.874;25.320;2022-09-09T11:43:21;97031.91;;;34.52;32.46
20115;BME280;10218;42.874;25.320;2022-09-09T11:45:54;97038.09;;;34.57;32.21
20115;BME280;10218;42.874;25.320;2022-09-09T11:48:45;97032.88;;;34.73;32.21
20115;BME280;10218;42.874;25.320;2022-09-09T11:51:29;97048.41;;;33.88;33.27
20115;BME280;10218;42.874;25.320;2022-09-09T11:54:02;97046.25;;;33.85;33.12
20115;BME280;10218;42.874;25.320;2022-09-09T11:56:49;97042.53;;;34.32;32.44
20115;BME280;10218;42.874;25.320;2022-09-09T11:59:29;97026.78;;;34.80;31.88
20115;BME280;10218;42.874;25.320;2022-09-09T12:02:47;97024.53;;;35.99;30.52
20115;BME280;10218;42.874;25.320;2022-09-09T12:05:08;97030.38;;;35.56;31.04
20115;BME280;10218;42.874;25.320;2022-09-09T12:07:46;97016.53;;;34.54;32.30
20115;BME280;10218;42.874;25.320;2022-09-09T12:10:26;97007.50;;;33.28;34.63
20115;BME280;10218;42.874;25.320;2022-09-09T12:12:54;97019.75;;;33.36;34.37
20115;BME280;10218;42.874;25.320;2022-09-09T12:15:27;97027.84;;;32.84;35.44
20115;BME280;10218;42.874;25.320;2022-09-09T12:17:57;97026.72;;;32.85;35.67
20115;BME280;10218;42.874;25.320;2022-09-09T12:20:38;97021.66;;;32.12;36.47
20115;BME280;10218;42.874;25.320;2022-09-09T12:23:30;97022.31;;;31.95;37.25
20115;BME280;10218;42.874;25.320;2022-09-09T12:28:49;97009.75;;;31.39;38.32
20115;BME280;10218;42.874;25.320;2022-09-09T12:31:24;97017.03;;;31.49;38.10
20115;BME280;10218;42.874;25.320;2022-09-09T12:33:53;97002.12;;;31.23;38.86
20115;BME280;10218;42.874;25.320;2022-09-09T12:36:24;97003.50;;;31.48;38.38
20115;BME280;10218;42.874;25.320;2022-09-09T12:38:55;96999.03;;;30.83;39.55
20115;BME280;10218;42.874;25.320;2022-09-09T12:41:26;96999.34;;;30.95;39.36
20115;BME280;10218;42.874;25.320;2022-09-09T12:44:05;96988.63;;;30.80;39.65
20115;BME280;10218;42.874;25.320;2022-09-09T12:46:36;96989.44;;;30.67;40.07
20115;BME280;10218;42.874;25.320;2022-09-09T12:49:18;96983.50;;;30.74;40.00
20115;BME280;10218;42.874;25.320;2022-09-09T12:51:51;96982.91;;;30.77;40.00
20115;BME280;10218;42.874;25.320;2022-09-09T12:54:19;96989.00;;;30.46;40.39
20115;BME280;10218;42.874;25.320;2022-09-09T12:56:47;96987.38;;;30.59;40.33
20115;BME280;10218;42.874;25.320;2022-09-09T12:59:24;96985.91;;;30.48;40.64
20115;BME280;10218;42.874;25.320;2022-09-09T13:01:56;96979.09;;;30.59;40.93
20115;BME280;10218;42.874;25.320;2022-09-09T13:04:24;96988.09;;;30.78;40.57
20115;BME280;10218;42.874;25.320;2022-09-09T13:06:51;96985.75;;;30.72;40.61
20115;BME280;10218;42.874;25.320;2022-09-09T13:09:22;96981.47;;;30.93;40.79
20115;BME280;10218;42.874;25.320;2022-09-09T13:11:53;96984.78;;;31.09;40.43
20115;BME280;10218;42.874;25.320;2022-09-09T13:14:29;96992.50;;;30.79;41.08
20115;BME280;10218;42.874;25.320;2022-09-09T13:16:59;96977.88;;;30.19;41.89
20115;BME280;10218;42.874;25.320;2022-09-09T13:19:29;96975.31;;;30.69;41.68
20115;BME280;10218;42.874;25.320;2022-09-09T13:21:58;96974.31;;;31.19;40.68
20115;BME280;10218;42.874;25.320;2022-09-09T13:24:30;96964.09;;;31.20;40.66
20115;BME280;10218;42.874;25.320;2022-09-09T13:27:00;96970.62;;;31.37;40.52
20115;BME280;10218;42.874;25.320;2022-09-09T13:29:32;96964.59;;;30.94;40.99
20115;BME280;10218;42.874;25.320;2022-09-09T13:32:12;96975.94;;;30.79;41.58
20115;BME280;10218;42.874;25.320;2022-09-09T13:34:51;96978.94;;;30.37;42.26
20115;BME280;10218;42.874;25.320;2022-09-09T13:37:36;96972.56;;;30.23;42.24
20115;BME280;10218;42.874;25.320;2022-09-09T13:40:17;96974.28;;;30.18;42.78
20115;BME280;10218;42.874;25.320;2022-09-09T13:42:45;96969.81;;;30.23;42.51
20115;BME280;10218;42.874;25.320;2022-09-09T13:45:20;96956.28;;;30.40;42.43
20115;BME280;10218;42.874;25.320;2022-09-09T13:47:49;96963.53;;;30.36;42.62
20115;BME280;10218;42.874;25.320;2022-09-09T13:52:55;96974.94;;;30.43;42.70
20115;BME280;10218;42.874;25.320;2022-09-09T13:55:27;96974.84;;;31.08;41.61
20115;BME280;10218;42.874;25.320;2022-09-09T13:58:00;96978.44;;;32.16;39.70
20115;BME280;10218;42.874;25.320;2022-09-09T14:00:32;96975.81;;;32.95;38.32
20115;BME280;10218;42.874;25.320;2022-09-09T14:03:00;96957.34;;;31.98;39.13
20115;BME280;10218;42.874;25.320;2022-09-09T14:05:32;96951.66;;;31.80;39.56
20115;BME280;10218;42.874;25.320;2022-09-09T14:08:03;96964.72;;;31.17;40.87
20115;BME280;10218;42.874;25.320;2022-09-09T14:10:31;96957.22;;;30.49;41.70
20115;BME280;10218;42.874;25.320;2022-09-09T14:12:58;96957.12;;;30.54;41.79
20115;BME280;10218;42.874;25.320;2022-09-09T14:15:25;96966.56;;;30.67;41.49
20115;BME280;10218;42.874;25.320;2022-09-09T14:17:53;96961.66;;;30.77;41.30
20115;BME280;10218;42.874;25.320;2022-09-09T14:20:20;96957.66;;;30.56;41.65
20115;BME280;10218;42.874;25.320;2022-09-09T14:22:48;96973.28;;;30.28;42.59
20115;BME280;10218;42.874;25.320;2022-09-09T14:25:15;96970.97;;;30.03;43.02
20115;BME280;10218;42.874;25.320;2022-09-09T14:27:42;96981.19;;;30.02;43.13
20115;BME280;10218;42.874;25.320;2022-09-09T14:30:09;96976.56;;;29.98;43.51
20115;BME280;10218;42.874;25.320;2022-09-09T14:32:36;96968.25;;;29.65;43.58
20115;BME280;10218;42.874;25.320;2022-09-09T14:35:04;96974.06;;;29.45;44.05
20115;BME280;10218;42.874;25.320;2022-09-09T14:37:31;96971.47;;;29.91;43.49
20115;BME280;10218;42.874;25.320;2022-09-09T14:39:58;96970.34;;;29.55;43.84
20115;BME280;10218;42.874;25.320;2022-09-09T14:42:25;96970.69;;;29.29;44.37
20115;BME280;10218;42.874;25.320;2022-09-09T14:44:53;96959.41;;;29.31;44.32
20115;BME280;10218;42.874;25.320;2022-09-09T14:47:20;96971.00;;;29.47;44.31
20115;BME280;10218;42.874;25.320;2022-09-09T14:49:47;96956.69;;;29.26;44.64
20115;BME280;10218;42.874;25.320;2022-09-09T14:52:17;96961.34;;;29.49;44.25
20115;BME280;10218;42.874;25.320;2022-09-09T14:54:44;96963.91;;;29.22;44.70
20115;BME280;10218;42.874;25.320;2022-09-09T14:57:10;96969.03;;;29.28;44.62
20115;BME280;10218;42.874;25.320;2022-09-09T14:59:38;96976.00;;;29.02;45.13
20115;BME280;10218;42.874;25.320;2022-09-09T15:02:05;96975.09;;;29.30;44.71
20115;BME280;10218;42.874;25.320;2022-09-09T15:04:32;96980.66;;;29.02;45.43
20115;BME280;10218;42.874;25.320;2022-09-09T15:06:59;96986.34;;;29.10;45.09
20115;BME280;10218;42.874;25.320;2022-09-09T15:09:26;96994.31;;;28.88;45.60
20115;BME280;10218;42.874;25.320;2022-09-09T15:11:53;96985.28;;;28.59;46.55
20115;BME280;10218;42.874;25.320;2022-09-09T15:14:20;96993.50;;;28.87;45.88
20115;BME280;10218;42.874;25.320;2022-09-09T15:16:47;96993.75;;;28.62;46.39
20115;BME280;10218;42.874;25.320;2022-09-09T15:19:14;96983.88;;;28.61;46.42
20115;BME280;10218;42.874;25.320;2022-09-09T15:21:42;96995.84;;;28.46;46.87